Wagner, South Dakota
Current Conditions -  °F | °C
As of 2:55 AM on Saturday 25 Oct 2014 (Local Time) from KONL Reporting Station
Clear Clear  
Wind Chill: 45°   Ceiling: Unl
Heat Index: 49°   Visibility: 10mi
Dew Point: 42°   Wind: 8mph
Humidity: 77%   Direction: 360°N
Pressure: 30.1"   Gusts: NA
Location:  43.08°N, 98.29°W
Report Text: KONL 250755Z AUTO 36007KT 10SM CLR 09/05 A3010 RMK AO2 T00920053
Loading
Personal Weather Stations






























Interactive Weather Map
Tropical Storm Tracking
New forecast layout! Learn more

10-Day Weather Forecast

Advertisements
Track Severe Weather on mobile